Terminal Aerodrome Forecast
Issued by NWS

Current Version | Previous Version | Text Only | Print | Product List | Glossary On
Versions: 1 2 3 4 5 6 7 8 9 10 11 12 13 14 15 16 17 18 19 20 21 22 23 24 25 26 27 28 29 30 31 32 33 34 35 36 37
540
FTUS46 KOTX 241120
TAFSFF
TAF
KSFF 241120Z 2412/2512 02003KT P6SM -SHRA OVC060
     FM241600 VRB03KT P6SM BKN030 OVC060
     FM241900 24005KT P6SM -SHRA BKN050 BKN100
     FM250200 VRB03KT P6SM SCT060=

USA.gov is the U.S. government's official web portal to all federal, state and local government web resources and services.